createdAt,value
2022-11-07T00:00:21.359Z,16.08
2022-11-07T00:05:24.670Z,12.68
2022-11-07T00:10:29.779Z,10.10
2022-11-07T00:15:34.525Z,11.40
2022-11-07T00:20:37.812Z,12.05
2022-11-07T00:25:41.071Z,10.35
2022-11-07T00:30:45.750Z,10.98
2022-11-07T00:35:49.539Z,11.57
2022-11-07T00:40:56.343Z,9.57
2022-11-07T00:46:02.614Z,10.43
2022-11-07T00:51:10.466Z,9.88
2022-11-07T00:56:15.923Z,9.85
2022-11-07T01:01:22.664Z,11.18
2022-11-07T01:06:28.351Z,12.27
2022-11-07T01:11:31.973Z,12.23
2022-11-07T01:16:38.842Z,14.25
2022-11-07T01:21:43.564Z,12.45
2022-11-07T01:26:48.932Z,12.10
2022-11-07T01:31:53.612Z,12.10
2022-11-07T01:36:56.954Z,11.02
2022-11-07T01:42:00.512Z,13.00
2022-11-07T01:47:05.239Z,13.53
2022-11-07T01:52:12.695Z,16.65
2022-11-07T01:57:22.401Z,20.15
2022-11-07T02:02:28.760Z,18.13
2022-11-07T02:07:33.217Z,19.00
2022-11-07T02:12:37.012Z,16.17
2022-11-07T02:17:42.144Z,19.80
2022-11-07T02:22:51.708Z,18.27
2022-11-07T02:27:59.394Z,19.48
2022-11-07T02:33:03.200Z,21.50
2022-11-07T02:38:09.956Z,22.08
2022-11-07T02:43:17.577Z,19.23
2022-11-07T02:48:21.072Z,17.60
2022-11-07T02:53:24.720Z,15.77
2022-11-07T02:58:29.406Z,17.43
2022-11-07T03:03:34.347Z,17.73
2022-11-07T03:08:38.020Z,19.92
2022-11-07T03:13:42.780Z,21.83
2022-11-07T03:18:46.151Z,22.38
2022-11-07T03:23:49.416Z,23.95
2022-11-07T03:28:54.060Z,21.73
2022-11-07T03:33:57.470Z,20.90
2022-11-07T03:39:00.831Z,20.23
2022-11-07T03:44:05.628Z,21.33
2022-11-07T03:49:10.193Z,20.35
2022-11-07T03:54:13.481Z,22.20
2022-11-07T03:59:18.191Z,23.17
2022-11-07T04:04:21.493Z,26.63
2022-11-07T04:09:24.757Z,25.88
2022-11-07T04:14:46.608Z,23.02
2022-11-07T04:19:52.259Z,20.98
2022-11-07T04:24:55.578Z,18.90
2022-11-07T04:30:19.019Z,20.70
2022-11-07T04:35:24.431Z,18.40
2022-11-07T04:40:28.437Z,20.27
2022-11-07T04:45:33.127Z,21.92
2022-11-07T04:50:36.373Z,24.45
2022-11-07T04:55:39.642Z,24.08
2022-11-07T05:00:44.344Z,23.00
2022-11-07T05:05:47.639Z,24.20
2022-11-07T05:10:50.935Z,18.92
2022-11-07T05:15:55.568Z,26.83
2022-11-07T05:20:58.873Z,30.75
2022-11-07T05:26:02.145Z,33.10
2022-11-07T05:31:08.033Z,34.53
2022-11-07T05:36:13.511Z,31.42
2022-11-07T05:41:18.643Z,30.93
2022-11-07T05:46:23.349Z,27.63
2022-11-07T05:51:26.620Z,39.25
2022-11-07T05:56:29.892Z,36.05
2022-11-07T06:01:35.697Z,43.20
2022-11-07T06:06:39.270Z,43.33
2022-11-07T06:11:42.676Z,51.15
2022-11-07T06:16:47.516Z,67.33
2022-11-07T06:21:50.766Z,52.08
2022-11-07T06:26:54.527Z,47.50
2022-11-07T06:31:59.186Z,37.57
2022-11-07T06:37:03.503Z,59.13
2022-11-07T06:42:07.139Z,63.53
2022-11-07T06:47:11.877Z,55.17
2022-11-07T06:52:15.240Z,43.60
2022-11-07T06:57:18.616Z,28.70
2022-11-07T07:02:44.409Z,27.08
2022-11-07T07:07:46.751Z,26.30
2022-11-07T07:12:50.172Z,24.53
2022-11-07T07:17:54.828Z,23.13
2022-11-07T07:23:04.404Z,22.05
2022-11-07T07:28:08.908Z,20.17
2022-11-07T07:33:14.007Z,16.40
2022-11-07T07:38:17.590Z,16.75
2022-11-07T07:43:20.899Z,8.30
2022-11-07T07:48:25.559Z,7.88
2022-11-07T07:53:28.885Z,8.57
2022-11-07T07:58:32.290Z,9.07
2022-11-07T08:03:59.793Z,9.23
2022-11-07T08:09:00.517Z,9.13
2022-11-07T08:14:03.818Z,7.95
2022-11-07T08:19:08.689Z,5.90
2022-11-07T08:24:12.152Z,6.30
2022-11-07T08:29:15.691Z,5.60
2022-11-07T08:34:20.362Z,5.37
2022-11-07T08:39:23.620Z,5.80
2022-11-07T08:44:27.060Z,5.50
2022-11-07T08:49:31.877Z,6.13
2022-11-07T08:54:35.103Z,6.25
2022-11-07T08:59:38.434Z,6.05
2022-11-07T09:04:43.153Z,5.65
2022-11-07T09:09:46.643Z,6.33
2022-11-07T09:14:49.917Z,6.03
2022-11-07T09:19:54.598Z,6.03
2022-11-07T09:24:58.167Z,6.80
2022-11-07T09:30:01.467Z,6.60
2022-11-07T09:35:07.648Z,6.38
2022-11-07T09:40:24.221Z,5.90
2022-11-07T09:45:30.130Z,5.45
2022-11-07T09:50:39.936Z,4.80
2022-11-07T09:55:50.331Z,6.47
2022-11-07T10:00:55.813Z,5.57
2022-11-07T10:06:14.463Z,6.05
2022-11-07T10:11:30.428Z,6.00
2022-11-07T10:16:43.628Z,6.38
2022-11-07T10:21:58.329Z,5.00
2022-11-07T10:27:03.171Z,4.63
2022-11-07T10:32:19.196Z,3.90
2022-11-07T10:37:23.911Z,3.40
2022-11-07T10:42:32.031Z,4.53
2022-11-07T10:47:35.298Z,2.28
2022-11-07T10:52:43.015Z,3.42
2022-11-07T10:57:50.899Z,3.35
2022-11-07T11:02:56.271Z,3.17
2022-11-07T11:08:14.734Z,2.63
2022-11-07T11:13:28.566Z,2.72
2022-11-07T11:18:31.876Z,2.42
2022-11-07T11:23:42.492Z,5.00
2022-11-07T11:28:48.957Z,2.30
2022-11-07T11:33:59.072Z,2.10
2022-11-07T11:39:06.599Z,3.03
2022-11-07T11:44:19.191Z,3.10
2022-11-07T11:49:29.615Z,2.28
2022-11-07T11:54:35.590Z,1.80
2022-11-07T12:00:12.054Z,1.98
2022-11-07T12:05:30.297Z,2.40
2022-11-07T12:10:42.343Z,2.15
2022-11-07T12:16:07.079Z,2.00
2022-11-07T12:21:24.655Z,1.92
2022-11-07T12:26:35.522Z,3.10
2022-11-07T12:31:54.685Z,2.00
2022-11-07T12:37:13.967Z,4.17
2022-11-07T12:42:27.928Z,4.53
2022-11-07T12:48:04.021Z,3.35
2022-11-07T12:53:17.892Z,2.93
2022-11-07T12:58:26.371Z,2.47
2022-11-07T13:03:51.140Z,2.35
2022-11-07T13:24:40.207Z,2.05
2022-11-07T13:29:45.485Z,2.13
2022-11-07T13:34:57.854Z,2.92
2022-11-07T13:40:06.075Z,1.55
2022-11-07T13:45:22.662Z,2.15
2022-11-07T13:50:40.027Z,2.72
2022-11-07T13:55:47.175Z,3.00
2022-11-07T14:00:52.071Z,3.10
2022-11-07T14:05:56.472Z,2.95
2022-11-07T14:11:00.620Z,2.57
2022-11-07T14:16:09.146Z,3.00
2022-11-07T14:31:30.743Z,2.13
2022-11-07T14:36:35.467Z,1.83
2022-11-07T14:41:42.854Z,2.33
2022-11-07T14:46:48.484Z,3.47
2022-11-07T14:51:52.512Z,2.45
2022-11-07T14:56:58.766Z,4.80
2022-11-07T15:02:07.441Z,8.02
2022-11-07T15:07:12.686Z,12.98
2022-11-07T15:12:19.721Z,11.43
2022-11-07T15:17:27.498Z,9.47
2022-11-07T15:22:36.268Z,12.18
2022-11-07T15:27:40.375Z,12.43
2022-11-07T15:32:45.206Z,8.68
2022-11-07T15:37:57.014Z,6.97
2022-11-07T15:43:00.300Z,7.50
2022-11-07T15:48:06.717Z,18.55
2022-11-07T15:53:16.749Z,14.70
2022-11-07T15:58:22.266Z,16.40
2022-11-07T16:03:28.117Z,17.50
2022-11-07T16:08:32.097Z,11.90
2022-11-07T16:13:35.364Z,17.05
2022-11-07T16:18:43.758Z,20.40
2022-11-07T16:23:49.667Z,12.20
2022-11-07T16:28:53.020Z,9.52
2022-11-07T16:33:57.644Z,6.10
2022-11-07T16:39:02.169Z,5.07
2022-11-07T16:44:05.539Z,5.57
2022-11-07T16:49:16.637Z,6.25
2022-11-07T16:54:22.964Z,6.33
2022-11-07T16:59:26.264Z,5.87
2022-11-07T17:04:30.919Z,12.97
2022-11-07T17:19:41.664Z,10.60
2022-11-07T17:35:17.827Z,7.30
2022-11-07T17:40:22.826Z,10.65
2022-11-07T17:45:27.416Z,8.30
2022-11-07T18:00:38.256Z,9.25
2022-11-07T18:05:43.189Z,6.75
2022-11-07T18:10:46.451Z,9.73
2022-11-07T18:15:50.043Z,6.23
2022-11-07T18:20:54.888Z,6.55
2022-11-07T18:26:06.030Z,8.33
2022-11-07T18:31:11.239Z,9.00
2022-11-07T18:36:18.298Z,8.90
2022-11-07T18:41:23.615Z,9.98
2022-11-07T18:46:27.016Z,11.98
2022-11-07T18:51:31.893Z,11.07
2022-11-07T18:56:35.179Z,10.00
2022-11-07T19:01:38.847Z,10.90
2022-11-07T19:06:57.140Z,16.45
2022-11-07T19:12:01.889Z,13.95
2022-11-07T19:17:05.312Z,15.98
2022-11-07T19:22:12.852Z,14.23
2022-11-07T19:27:16.583Z,19.45
2022-11-07T19:32:20.090Z,17.33
2022-11-07T19:37:25.689Z,17.33
2022-11-07T19:42:29.229Z,19.77
2022-11-07T19:47:32.661Z,18.17
2022-11-07T19:52:37.324Z,16.13
2022-11-07T19:57:40.598Z,16.80
2022-11-07T20:02:44.989Z,21.70
2022-11-07T20:07:53.990Z,18.33
2022-11-07T20:12:58.736Z,19.02
2022-11-07T20:18:02.168Z,19.97
2022-11-07T20:23:06.851Z,21.47
2022-11-07T20:28:10.493Z,17.85
2022-11-07T20:33:13.864Z,22.67
2022-11-07T20:38:18.652Z,17.98
2022-11-07T20:43:22.417Z,19.40
2022-11-07T20:48:25.804Z,39.25
2022-11-07T20:53:30.600Z,45.70
2022-11-07T20:58:34.633Z,44.23
2022-11-07T21:03:37.943Z,19.63
2022-11-07T21:08:44.563Z,15.00
2022-11-07T21:13:52.767Z,14.55
2022-11-07T21:18:57.628Z,13.87
2022-11-07T21:24:03.259Z,13.90
2022-11-07T21:29:08.522Z,16.35
2022-11-07T21:34:12.959Z,13.27
2022-11-07T21:39:18.009Z,14.80
2022-11-07T21:44:21.523Z,14.50
2022-11-07T21:49:24.990Z,14.77
2022-11-07T21:54:29.877Z,16.77
2022-11-07T21:59:33.467Z,16.92
2022-11-07T22:04:37.461Z,15.85
2022-11-07T22:09:42.498Z,14.37
2022-11-07T22:14:49.081Z,14.68
2022-11-07T22:19:52.423Z,12.55
2022-11-07T22:24:57.043Z,21.50
2022-11-07T22:30:00.760Z,24.67
2022-11-07T22:35:08.946Z,18.38
2022-11-07T22:40:19.496Z,62.75
2022-11-07T22:45:23.487Z,114.85
2022-11-07T22:50:26.738Z,33.60
2022-11-07T22:55:36.193Z,17.90
2022-11-07T23:00:39.456Z,19.20
2022-11-07T23:05:42.805Z,18.50
2022-11-07T23:10:47.421Z,16.77
2022-11-07T23:15:50.775Z,14.85
2022-11-07T23:21:12.297Z,14.40
2022-11-07T23:26:19.245Z,17.73
2022-11-07T23:31:22.507Z,15.82
2022-11-07T23:36:25.843Z,14.00
2022-11-07T23:41:30.859Z,13.60
2022-11-07T23:46:51.507Z,16.48
2022-11-07T23:51:54.831Z,31.88
2022-11-07T23:56:59.499Z,36.07
